sensor_id;sensor_type;location;lat;lon;timestamp;temperature;humidity
14783;DHT22;7483;50.498;12.138;2022-10-16T00:01:39;15.80;99.90
14783;DHT22;7483;50.498;12.138;2022-10-16T00:04:08;15.80;99.90
14783;DHT22;7483;50.498;12.138;2022-10-16T00:06:36;15.90;99.90
14783;DHT22;7483;50.498;12.138;2022-10-16T00:09:06;15.80;99.90
14783;DHT22;7483;50.498;12.138;2022-10-16T00:11:36;15.90;99.90
14783;DHT22;7483;50.498;12.138;2022-10-16T00:14:08;15.90;99.90
14783;DHT22;7483;50.498;12.138;2022-10-16T00:16:37;15.90;99.90
14783;DHT22;7483;50.498;12.138;2022-10-16T00:19:05;15.90;99.90
14783;DHT22;7483;50.498;12.138;2022-10-16T00:21:34;15.90;99.90
14783;DHT22;7483;50.498;12.138;2022-10-16T00:24:05;15.90;99.90
14783;DHT22;7483;50.498;12.138;2022-10-16T00:26:35;15.90;99.90
14783;DHT22;7483;50.498;12.138;2022-10-16T00:29:05;15.90;99.90
14783;DHT22;7483;50.498;12.138;2022-10-16T00:31:33;15.90;99.90
14783;DHT22;7483;50.498;12.138;2022-10-16T00:34:01;15.90;99.90
14783;DHT22;7483;50.498;12.138;2022-10-16T00:36:29;15.90;99.90
14783;DHT22;7483;50.498;12.138;2022-10-16T00:38:57;15.90;99.90
14783;DHT22;7483;50.498;12.138;2022-10-16T00:41:33;15.90;99.90
14783;DHT22;7483;50.498;12.138;2022-10-16T00:44:03;15.90;99.90
14783;DHT22;7483;50.498;12.138;2022-10-16T00:46:52;15.90;99.90
14783;DHT22;7483;50.498;12.138;2022-10-16T00:49:20;15.90;99.90
14783;DHT22;7483;50.498;12.138;2022-10-16T00:51:50;15.90;99.90
14783;DHT22;7483;50.498;12.138;2022-10-16T00:54:22;15.80;99.90
14783;DHT22;7483;50.498;12.138;2022-10-16T00:56:50;15.80;99.90
14783;DHT22;7483;50.498;12.138;2022-10-16T00:59:20;15.80;99.90
14783;DHT22;7483;50.498;12.138;2022-10-16T01:01:48;15.70;99.90
14783;DHT22;7483;50.498;12.138;2022-10-16T01:04:18;15.80;99.90
14783;DHT22;7483;50.498;12.138;2022-10-16T01:06:51;15.70;99.90
14783;DHT22;7483;50.498;12.138;2022-10-16T01:09:29;15.70;99.90
14783;DHT22;7483;50.498;12.138;2022-10-16T01:12:08;15.80;99.90
14783;DHT22;7483;50.498;12.138;2022-10-16T01:14:41;15.80;99.90
14783;DHT22;7483;50.498;12.138;2022-10-16T01:17:14;15.80;99.90
14783;DHT22;7483;50.498;12.138;2022-10-16T01:20:07;15.80;99.90
14783;DHT22;7483;50.498;12.138;2022-10-16T01:22:43;15.80;99.90
14783;DHT22;7483;50.498;12.138;2022-10-16T01:25:18;15.90;99.90
14783;DHT22;7483;50.498;12.138;2022-10-16T01:27:50;15.90;99.90
14783;DHT22;7483;50.498;12.138;2022-10-16T01:30:21;15.90;99.90
14783;DHT22;7483;50.498;12.138;2022-10-16T01:32:54;15.90;99.90
14783;DHT22;7483;50.498;12.138;2022-10-16T01:35:25;15.90;99.90
14783;DHT22;7483;50.498;12.138;2022-10-16T01:37:58;15.90;99.90
14783;DHT22;7483;50.498;12.138;2022-10-16T01:40:28;15.90;99.90
14783;DHT22;7483;50.498;12.138;2022-10-16T01:43:01;16.00;99.90
14783;DHT22;7483;50.498;12.138;2022-10-16T01:45:31;15.90;99.90
14783;DHT22;7483;50.498;12.138;2022-10-16T01:48:01;15.90;99.90
14783;DHT22;7483;50.498;12.138;2022-10-16T01:50:31;15.90;99.90
14783;DHT22;7483;50.498;12.138;2022-10-16T01:53:02;15.90;99.90
14783;DHT22;7483;50.498;12.138;2022-10-16T01:55:33;15.90;99.90
14783;DHT22;7483;50.498;12.138;2022-10-16T01:58:07;15.90;99.90
14783;DHT22;7483;50.498;12.138;2022-10-16T02:00:38;15.90;99.90
14783;DHT22;7483;50.498;12.138;2022-10-16T02:03:07;15.90;99.90
14783;DHT22;7483;50.498;12.138;2022-10-16T02:05:40;15.90;99.90
14783;DHT22;7483;50.498;12.138;2022-10-16T02:08:09;15.80;99.90
14783;DHT22;7483;50.498;12.138;2022-10-16T02:10:37;15.80;99.90
14783;DHT22;7483;50.498;12.138;2022-10-16T02:13:09;15.80;99.90
14783;DHT22;7483;50.498;12.138;2022-10-16T02:15:38;15.80;99.90
14783;DHT22;7483;50.498;12.138;2022-10-16T02:18:07;15.80;99.90
14783;DHT22;7483;50.498;12.138;2022-10-16T02:20:39;15.80;99.90
14783;DHT22;7483;50.498;12.138;2022-10-16T02:23:12;15.80;99.90
14783;DHT22;7483;50.498;12.138;2022-10-16T02:25:45;15.80;99.90
14783;DHT22;7483;50.498;12.138;2022-10-16T02:28:18;15.80;99.90
14783;DHT22;7483;50.498;12.138;2022-10-16T02:30:50;15.70;99.90
14783;DHT22;7483;50.498;12.138;2022-10-16T02:33:20;15.70;99.90
14783;DHT22;7483;50.498;12.138;2022-10-16T02:35:49;15.70;99.90
14783;DHT22;7483;50.498;12.138;2022-10-16T02:38:19;15.70;99.90
14783;DHT22;7483;50.498;12.138;2022-10-16T02:40:48;15.70;99.90
14783;DHT22;7483;50.498;12.138;2022-10-16T02:43:17;15.70;99.90
14783;DHT22;7483;50.498;12.138;2022-10-16T02:45:46;15.70;99.90
14783;DHT22;7483;50.498;12.138;2022-10-16T02:48:13;15.70;99.90
14783;DHT22;7483;50.498;12.138;2022-10-16T02:50:41;15.70;99.90
14783;DHT22;7483;50.498;12.138;2022-10-16T02:53:09;15.70;99.90
14783;DHT22;7483;50.498;12.138;2022-10-16T02:55:37;15.70;99.90
14783;DHT22;7483;50.498;12.138;2022-10-16T02:58:05;15.70;99.90
14783;DHT22;7483;50.498;12.138;2022-10-16T03:00:34;15.70;99.90
14783;DHT22;7483;50.498;12.138;2022-10-16T03:03:02;15.70;99.90
14783;DHT22;7483;50.498;12.138;2022-10-16T03:05:30;15.70;99.90
14783;DHT22;7483;50.498;12.138;2022-10-16T03:07:58;15.70;99.90
14783;DHT22;7483;50.498;12.138;2022-10-16T03:10:27;15.70;99.90
14783;DHT22;7483;50.498;12.138;2022-10-16T03:12:55;15.70;99.90
14783;DHT22;7483;50.498;12.138;2022-10-16T03:15:22;15.70;99.90
14783;DHT22;7483;50.498;12.138;2022-10-16T03:17:52;15.70;99.90
14783;DHT22;7483;50.498;12.138;2022-10-16T03:20:20;15.60;99.90
14783;DHT22;7483;50.498;12.138;2022-10-16T03:22:48;15.60;99.90
14783;DHT22;7483;50.498;12.138;2022-10-16T03:25:16;15.50;99.90
14783;DHT22;7483;50.498;12.138;2022-10-16T03:27:44;15.50;99.90
14783;DHT22;7483;50.498;12.138;2022-10-16T03:30:12;15.40;99.90
14783;DHT22;7483;50.498;12.138;2022-10-16T03:32:40;15.40;99.90
14783;DHT22;7483;50.498;12.138;2022-10-16T03:35:09;15.40;99.90
14783;DHT22;7483;50.498;12.138;2022-10-16T03:37:37;15.40;99.90
14783;DHT22;7483;50.498;12.138;2022-10-16T03:40:06;15.40;99.90
14783;DHT22;7483;50.498;12.138;2022-10-16T03:42:34;15.40;99.90
14783;DHT22;7483;50.498;12.138;2022-10-16T03:45:02;15.40;99.90
14783;DHT22;7483;50.498;12.138;2022-10-16T03:47:30;15.40;99.90
14783;DHT22;7483;50.498;12.138;2022-10-16T03:49:59;15.40;99.90
14783;DHT22;7483;50.498;12.138;2022-10-16T03:52:29;15.40;99.90
14783;DHT22;7483;50.498;12.138;2022-10-16T03:54:57;15.40;99.90
14783;DHT22;7483;50.498;12.138;2022-10-16T03:57:25;15.40;99.90
14783;DHT22;7483;50.498;12.138;2022-10-16T03:59:53;15.40;99.90
14783;DHT22;7483;50.498;12.138;2022-10-16T04:02:21;15.40;99.90
14783;DHT22;7483;50.498;12.138;2022-10-16T04:04:49;15.40;99.90
14783;DHT22;7483;50.498;12.138;2022-10-16T04:07:17;15.40;99.90
14783;DHT22;7483;50.498;12.138;2022-10-16T04:09:46;15.40;99.90
14783;DHT22;7483;50.498;12.138;2022-10-16T04:12:14;15.50;99.90
14783;DHT22;7483;50.498;12.138;2022-10-16T04:14:42;15.50;99.90
14783;DHT22;7483;50.498;12.138;2022-10-16T04:17:10;15.50;99.90
14783;DHT22;7483;50.498;12.138;2022-10-16T04:19:38;15.50;99.90
14783;DHT22;7483;50.498;12.138;2022-10-16T04:22:05;15.50;99.90
14783;DHT22;7483;50.498;12.138;2022-10-16T04:24:33;15.50;99.90
14783;DHT22;7483;50.498;12.138;2022-10-16T04:27:03;15.50;99.90
14783;DHT22;7483;50.498;12.138;2022-10-16T04:29:31;15.40;99.90
14783;DHT22;7483;50.498;12.138;2022-10-16T04:31:59;15.50;99.90
14783;DHT22;7483;50.498;12.138;2022-10-16T04:34:26;15.50;99.90
14783;DHT22;7483;50.498;12.138;2022-10-16T04:36:54;15.50;99.90
14783;DHT22;7483;50.498;12.138;2022-10-16T04:39:22;15.50;99.90
14783;DHT22;7483;50.498;12.138;2022-10-16T04:41:50;15.50;99.90
14783;DHT22;7483;50.498;12.138;2022-10-16T04:44:19;15.50;99.90
14783;DHT22;7483;50.498;12.138;2022-10-16T04:46:49;15.50;99.90
14783;DHT22;7483;50.498;12.138;2022-10-16T04:49:17;15.50;99.90
14783;DHT22;7483;50.498;12.138;2022-10-16T04:51:45;15.50;99.90
14783;DHT22;7483;50.498;12.138;2022-10-16T04:54:13;15.50;99.90
14783;DHT22;7483;50.498;12.138;2022-10-16T04:56:41;15.40;99.90
14783;DHT22;7483;50.498;12.138;2022-10-16T04:59:14;15.40;99.90
14783;DHT22;7483;50.498;12.138;2022-10-16T05:01:43;15.40;99.90
14783;DHT22;7483;50.498;12.138;2022-10-16T05:04:11;15.30;99.90
14783;DHT22;7483;50.498;12.138;2022-10-16T05:06:41;15.30;99.90
14783;DHT22;7483;50.498;12.138;2022-10-16T05:09:09;15.30;99.90
14783;DHT22;7483;50.498;12.138;2022-10-16T05:11:37;15.30;99.90
14783;DHT22;7483;50.498;12.138;2022-10-16T05:14:05;15.30;99.90
14783;DHT22;7483;50.498;12.138;2022-10-16T05:16:33;15.30;99.90
14783;DHT22;7483;50.498;12.138;2022-10-16T05:19:03;15.30;99.90
14783;DHT22;7483;50.498;12.138;2022-10-16T05:21:51;15.30;99.90
14783;DHT22;7483;50.498;12.138;2022-10-16T05:24:19;15.30;99.90
14783;DHT22;7483;50.498;12.138;2022-10-16T05:26:46;15.30;99.90
14783;DHT22;7483;50.498;12.138;2022-10-16T05:29:14;15.40;99.90
14783;DHT22;7483;50.498;12.138;2022-10-16T05:31:43;15.30;99.90
14783;DHT22;7483;50.498;12.138;2022-10-16T05:34:12;15.30;99.90
14783;DHT22;7483;50.498;12.138;2022-10-16T05:36:40;15.30;99.90
14783;DHT22;7483;50.498;12.138;2022-10-16T05:39:08;15.30;99.90
14783;DHT22;7483;50.498;12.138;2022-10-16T05:41:35;15.30;99.90
14783;DHT22;7483;50.498;12.138;2022-10-16T05:44:04;15.30;99.90
14783;DHT22;7483;50.498;12.138;2022-10-16T05:46:33;15.40;99.90
14783;DHT22;7483;50.498;12.138;2022-10-16T05:49:01;15.40;99.90
14783;DHT22;7483;50.498;12.138;2022-10-16T05:51:30;15.40;99.90
14783;DHT22;7483;50.498;12.138;2022-10-16T05:53:58;15.50;99.90
14783;DHT22;7483;50.498;12.138;2022-10-16T05:56:26;15.50;99.90
14783;DHT22;7483;50.498;12.138;2022-10-16T05:58:54;15.50;99.90
14783;DHT22;7483;50.498;12.138;2022-10-16T06:01:22;15.50;99.90
14783;DHT22;7483;50.498;12.138;2022-10-16T06:03:51;15.60;99.90
14783;DHT22;7483;50.498;12.138;2022-10-16T06:06:21;15.60;99.90
14783;DHT22;7483;50.498;12.138;2022-10-16T06:08:52;15.60;99.90
14783;DHT22;7483;50.498;12.138;2022-10-16T06:11:22;15.70;99.90
14783;DHT22;7483;50.498;12.138;2022-10-16T06:13:51;15.70;99.90
14783;DHT22;7483;50.498;12.138;2022-10-16T06:16:19;15.70;99.90
14783;DHT22;7483;50.498;12.138;2022-10-16T06:18:47;15.70;99.90
14783;DHT22;7483;50.498;12.138;2022-10-16T06:21:18;15.70;99.90
14783;DHT22;7483;50.498;12.138;2022-10-16T06:23:47;15.80;99.90
14783;DHT22;7483;50.498;12.138;2022-10-16T06:26:18;15.90;99.90
14783;DHT22;7483;50.498;12.138;2022-10-16T06:28:47;15.90;99.90
14783;DHT22;7483;50.498;12.138;2022-10-16T06:31:15;15.90;99.90
14783;DHT22;7483;50.498;12.138;2022-10-16T06:33:43;15.90;99.90
14783;DHT22;7483;50.498;12.138;2022-10-16T06:36:13;15.90;99.90
14783;DHT22;7483;50.498;12.138;2022-10-16T06:38:41;16.00;99.90
14783;DHT22;7483;50.498;12.138;2022-10-16T06:41:11;16.00;99.90
14783;DHT22;7483;50.498;12.138;2022-10-16T06:43:44;16.10;99.90
14783;DHT22;7483;50.498;12.138;2022-10-16T06:46:14;16.10;99.90
14783;DHT22;7483;50.498;12.138;2022-10-16T06:48:43;16.10;99.90
14783;DHT22;7483;50.498;12.138;2022-10-16T06:51:12;16.20;99.90
14783;DHT22;7483;50.498;12.138;2022-10-16T06:53:41;16.20;99.90
14783;DHT22;7483;50.498;12.138;2022-10-16T06:56:28;16.20;99.90
14783;DHT22;7483;50.498;12.138;2022-10-16T06:58:59;16.30;99.90
14783;DHT22;7483;50.498;12.138;2022-10-16T07:01:28;16.30;99.90
14783;DHT22;7483;50.498;12.138;2022-10-16T07:03:57;16.30;99.90
14783;DHT22;7483;50.498;12.138;2022-10-16T07:06:26;16.40;99.90
14783;DHT22;7483;50.498;12.138;2022-10-16T07:08:54;16.40;99.90
14783;DHT22;7483;50.498;12.138;2022-10-16T07:11:23;16.50;99.90
14783;DHT22;7483;50.498;12.138;2022-10-16T07:13:51;16.60;99.90
14783;DHT22;7483;50.498;12.138;2022-10-16T07:16:25;16.60;99.90
14783;DHT22;7483;50.498;12.138;2022-10-16T07:18:53;16.60;99.90
14783;DHT22;7483;50.498;12.138;2022-10-16T07:21:27;16.60;99.90
14783;DHT22;7483;50.498;12.138;2022-10-16T07:23:56;16.70;99.90
14783;DHT22;7483;50.498;12.138;2022-10-16T07:26:25;16.70;99.90
14783;DHT22;7483;50.498;12.138;2022-10-16T07:28:54;16.70;99.90
14783;DHT22;7483;50.498;12.138;2022-10-16T07:31:23;16.70;99.90
14783;DHT22;7483;50.498;12.138;2022-10-16T07:33:51;16.70;99.90
14783;DHT22;7483;50.498;12.138;2022-10-16T07:36:21;16.70;99.90
14783;DHT22;7483;50.498;12.138;2022-10-16T07:38:49;16.70;99.90
14783;DHT22;7483;50.498;12.138;2022-10-16T07:41:22;16.80;99.90
14783;DHT22;7483;50.498;12.138;2022-10-16T07:43:52;16.80;99.90
14783;DHT22;7483;50.498;12.138;2022-10-16T07:46:22;16.80;99.90
14783;DHT22;7483;50.498;12.138;2022-10-16T07:48:51;16.80;99.90
14783;DHT22;7483;50.498;12.138;2022-10-16T07:51:21;16.80;99.90
14783;DHT22;7483;50.498;12.138;2022-10-16T07:53:50;16.90;99.90
14783;DHT22;7483;50.498;12.138;2022-10-16T07:56:19;16.90;99.90
14783;DHT22;7483;50.498;12.138;2022-10-16T07:58:48;16.90;99.90
14783;DHT22;7483;50.498;12.138;2022-10-16T08:01:17;17.00;99.90
14783;DHT22;7483;50.498;12.138;2022-10-16T08:03:47;17.00;99.90
14783;DHT22;7483;50.498;12.138;2022-10-16T08:06:17;17.00;99.90
14783;DHT22;7483;50.498;12.138;2022-10-16T08:08:51;17.10;99.90
14783;DHT22;7483;50.498;12.138;2022-10-16T08:11:19;17.10;99.90
14783;DHT22;7483;50.498;12.138;2022-10-16T08:13:47;17.10;99.90
14783;DHT22;7483;50.498;12.138;2022-10-16T08:16:15;17.10;99.90
14783;DHT22;7483;50.498;12.138;2022-10-16T08:18:43;17.20;99.90
14783;DHT22;7483;50.498;12.138;2022-10-16T08:21:13;17.20;99.90
14783;DHT22;7483;50.498;12.138;2022-10-16T08:23:49;17.20;99.90
14783;DHT22;7483;50.498;12.138;2022-10-16T08:26:24;17.20;99.90
14783;DHT22;7483;50.498;12.138;2022-10-16T08:28:53;17.30;99.90
14783;DHT22;7483;50.498;12.138;2022-10-16T08:31:22;17.30;99.90
14783;DHT22;7483;50.498;12.138;2022-10-16T08:33:50;17.30;99.90
14783;DHT22;7483;50.498;12.138;2022-10-16T08:36:19;17.40;99.90
14783;DHT22;7483;50.498;12.138;2022-10-16T08:38:49;17.50;99.90
14783;DHT22;7483;50.498;12.138;2022-10-16T08:41:23;17.60;99.90
14783;DHT22;7483;50.498;12.138;2022-10-16T08:44:16;17.80;99.90
14783;DHT22;7483;50.498;12.138;2022-10-16T08:46:51;18.00;99.90
14783;DHT22;7483;50.498;12.138;2022-10-16T08:49:24;18.00;99.90
14783;DHT22;7483;50.498;12.138;2022-10-16T08:51:52;18.10;99.90
14783;DHT22;7483;50.498;12.138;2022-10-16T08:54:29;18.10;99.90
14783;DHT22;7483;50.498;12.138;2022-10-16T08:57:04;18.20;99.90
14783;DHT22;7483;50.498;12.138;2022-10-16T08:59:35;18.20;99.90
14783;DHT22;7483;50.498;12.138;2022-10-16T09:02:19;18.20;99.90
14783;DHT22;7483;50.498;12.138;2022-10-16T09:05:16;18.20;99.90
14783;DHT22;7483;50.498;12.138;2022-10-16T09:07:53;18.20;99.90
14783;DHT22;7483;50.498;12.138;2022-10-16T09:10:34;18.20;99.90
14783;DHT22;7483;50.498;12.138;2022-10-16T09:13:15;18.20;99.90
14783;DHT22;7483;50.498;12.138;2022-10-16T09:15:49;18.20;99.90
14783;DHT22;7483;50.498;12.138;2022-10-16T09:18:24;18.20;99.90
14783;DHT22;7483;50.498;12.138;2022-10-16T09:21:04;18.20;99.90
14783;DHT22;7483;50.498;12.138;2022-10-16T09:23:35;18.20;99.90
14783;DHT22;7483;50.498;12.138;2022-10-16T09:26:09;18.20;99.90
14783;DHT22;7483;50.498;12.138;2022-10-16T09:28:37;18.20;99.90
14783;DHT22;7483;50.498;12.138;2022-10-16T09:31:07;18.20;99.90
14783;DHT22;7483;50.498;12.138;2022-10-16T09:33:39;18.30;99.90
14783;DHT22;7483;50.498;12.138;2022-10-16T09:36:09;18.30;99.90
14783;DHT22;7483;50.498;12.138;2022-10-16T09:38:38;18.30;99.90
14783;DHT22;7483;50.498;12.138;2022-10-16T09:41:15;18.30;99.90
14783;DHT22;7483;50.498;12.138;2022-10-16T09:43:51;18.30;99.90
14783;DHT22;7483;50.498;12.138;2022-10-16T09:46:24;18.30;99.90
14783;DHT22;7483;50.498;12.138;2022-10-16T09:48:55;18.40;99.90
14783;DHT22;7483;50.498;12.138;2022-10-16T09:51:26;18.40;99.90
14783;DHT22;7483;50.498;12.138;2022-10-16T09:53:56;18.40;99.90
14783;DHT22;7483;50.498;12.138;2022-10-16T09:56:27;18.50;99.90
14783;DHT22;7483;50.498;12.138;2022-10-16T09:58:57;18.50;99.90
14783;DHT22;7483;50.498;12.138;2022-10-16T10:01:30;18.50;99.90
14783;DHT22;7483;50.498;12.138;2022-10-16T10:03:59;18.60;99.90
14783;DHT22;7483;50.498;12.138;2022-10-16T10:06:32;18.60;99.90
14783;DHT22;7483;50.498;12.138;2022-10-16T10:09:04;18.70;99.90
14783;DHT22;7483;50.498;12.138;2022-10-16T10:11:39;18.70;99.90
14783;DHT22;7483;50.498;12.138;2022-10-16T10:14:17;18.80;99.90
14783;DHT22;7483;50.498;12.138;2022-10-16T10:16:46;18.90;99.90
14783;DHT22;7483;50.498;12.138;2022-10-16T10:19:16;18.90;99.90
14783;DHT22;7483;50.498;12.138;2022-10-16T10:21:44;19.00;99.90
14783;DHT22;7483;50.498;12.138;2022-10-16T10:24:14;19.10;99.90
14783;DHT22;7483;50.498;12.138;2022-10-16T10:26:49;19.20;99.90
14783;DHT22;7483;50.498;12.138;2022-10-16T10:29:39;19.20;99.90
14783;DHT22;7483;50.498;12.138;2022-10-16T10:32:19;19.30;99.90
14783;DHT22;7483;50.498;12.138;2022-10-16T10:35:04;19.40;99.90
14783;DHT22;7483;50.498;12.138;2022-10-16T10:37:47;19.50;99.90
14783;DHT22;7483;50.498;12.138;2022-10-16T10:40:28;19.60;99.90
14783;DHT22;7483;50.498;12.138;2022-10-16T10:43:04;19.60;99.90
14783;DHT22;7483;50.498;12.138;2022-10-16T10:45:42;19.70;99.90
14783;DHT22;7483;50.498;12.138;2022-10-16T10:48:20;19.80;99.90
14783;DHT22;7483;50.498;12.138;2022-10-16T10:50:56;19.80;99.90
14783;DHT22;7483;50.498;12.138;2022-10-16T10:53:36;19.80;99.90
14783;DHT22;7483;50.498;12.138;2022-10-16T10:56:14;19.80;99.90
14783;DHT22;7483;50.498;12.138;2022-10-16T11:01:47;19.90;99.90
14783;DHT22;7483;50.498;12.138;2022-10-16T11:04:47;19.90;99.90
14783;DHT22;7483;50.498;12.138;2022-10-16T11:07:21;19.90;99.90
14783;DHT22;7483;50.498;12.138;2022-10-16T11:09:56;19.90;99.90
14783;DHT22;7483;50.498;12.138;2022-10-16T11:12:27;20.00;99.90
14783;DHT22;7483;50.498;12.138;2022-10-16T11:15:02;20.00;99.90
14783;DHT22;7483;50.498;12.138;2022-10-16T11:17:38;20.00;99.90
14783;DHT22;7483;50.498;12.138;2022-10-16T11:20:14;20.00;99.90
14783;DHT22;7483;50.498;12.138;2022-10-16T11:22:48;20.00;99.90
14783;DHT22;7483;50.498;12.138;2022-10-16T11:25:21;20.00;99.90
14783;DHT22;7483;50.498;12.138;2022-10-16T11:27:53;20.00;99.90
14783;DHT22;7483;50.498;12.138;2022-10-16T11:30:25;20.00;99.90
14783;DHT22;7483;50.498;12.138;2022-10-16T11:33:06;20.00;99.90
14783;DHT22;7483;50.498;12.138;2022-10-16T11:35:41;20.00;99.90
14783;DHT22;7483;50.498;12.138;2022-10-16T11:38:14;20.00;99.90
14783;DHT22;7483;50.498;12.138;2022-10-16T11:40:47;20.10;99.90
14783;DHT22;7483;50.498;12.138;2022-10-16T11:43:20;20.10;99.90
14783;DHT22;7483;50.498;12.138;2022-10-16T11:45:52;20.10;99.90
14783;DHT22;7483;50.498;12.138;2022-10-16T11:48:27;20.20;99.90
14783;DHT22;7483;50.498;12.138;2022-10-16T11:51:00;20.20;99.90
14783;DHT22;7483;50.498;12.138;2022-10-16T11:53:42;20.20;99.90
14783;DHT22;7483;50.498;12.138;2022-10-16T11:56:21;20.10;99.90
14783;DHT22;7483;50.498;12.138;2022-10-16T11:58:55;20.10;99.90
14783;DHT22;7483;50.498;12.138;2022-10-16T12:01:30;20.10;99.90
14783;DHT22;7483;50.498;12.138;2022-10-16T12:04:11;20.00;99.90
14783;DHT22;7483;50.498;12.138;2022-10-16T12:06:46;20.10;99.90
14783;DHT22;7483;50.498;12.138;2022-10-16T12:09:21;20.00;99.90
14783;DHT22;7483;50.498;12.138;2022-10-16T12:11:49;20.10;99.90
14783;DHT22;7483;50.498;12.138;2022-10-16T12:14:34;20.20;99.90
14783;DHT22;7483;50.498;12.138;2022-10-16T12:17:25;20.20;99.90
14783;DHT22;7483;50.498;12.138;2022-10-16T12:19:59;20.10;99.90
14783;DHT22;7483;50.498;12.138;2022-10-16T12:22:29;20.10;99.90
14783;DHT22;7483;50.498;12.138;2022-10-16T12:24:57;20.10;99.90
14783;DHT22;7483;50.498;12.138;2022-10-16T12:27:29;20.10;99.90
14783;DHT22;7483;50.498;12.138;2022-10-16T12:29:58;20.00;99.90
14783;DHT22;7483;50.498;12.138;2022-10-16T12:32:30;19.90;99.90
14783;DHT22;7483;50.498;12.138;2022-10-16T12:35:21;19.90;99.90
14783;DHT22;7483;50.498;12.138;2022-10-16T12:37:49;19.80;99.90
14783;DHT22;7483;50.498;12.138;2022-10-16T12:40:27;19.70;99.90
14783;DHT22;7483;50.498;12.138;2022-10-16T12:42:55;19.50;99.90
14783;DHT22;7483;50.498;12.138;2022-10-16T12:45:26;19.40;99.90
14783;DHT22;7483;50.498;12.138;2022-10-16T12:47:55;19.20;99.90
14783;DHT22;7483;50.498;12.138;2022-10-16T12:50:31;19.10;99.90
14783;DHT22;7483;50.498;12.138;2022-10-16T12:53:00;18.90;99.90
14783;DHT22;7483;50.498;12.138;2022-10-16T12:55:35;18.80;99.90
14783;DHT22;7483;50.498;12.138;2022-10-16T12:58:19;18.70;99.90
14783;DHT22;7483;50.498;12.138;2022-10-16T13:00:53;18.70;99.90
14783;DHT22;7483;50.498;12.138;2022-10-16T13:03:54;18.70;99.90
14783;DHT22;7483;50.498;12.138;2022-10-16T13:06:34;18.70;99.90
14783;DHT22;7483;50.498;12.138;2022-10-16T13:09:17;18.70;99.90
14783;DHT22;7483;50.498;12.138;2022-10-16T13:12:01;18.70;99.90
14783;DHT22;7483;50.498;12.138;2022-10-16T13:15:06;18.70;99.90
14783;DHT22;7483;50.498;12.138;2022-10-16T13:17:42;18.70;99.90
14783;DHT22;7483;50.498;12.138;2022-10-16T13:20:18;18.90;99.90
14783;DHT22;7483;50.498;12.138;2022-10-16T13:22:55;18.90;99.90
14783;DHT22;7483;50.498;12.138;2022-10-16T13:25:36;18.90;99.90
14783;DHT22;7483;50.498;12.138;2022-10-16T13:28:09;18.80;99.90
14783;DHT22;7483;50.498;12.138;2022-10-16T13:30:40;18.70;99.90
14783;DHT22;7483;50.498;12.138;2022-10-16T13:33:15;18.70;99.90
14783;DHT22;7483;50.498;12.138;2022-10-16T13:35:49;18.70;99.90
14783;DHT22;7483;50.498;12.138;2022-10-16T13:38:20;18.70;99.90
14783;DHT22;7483;50.498;12.138;2022-10-16T13:40:51;18.60;99.90
14783;DHT22;7483;50.498;12.138;2022-10-16T13:43:22;18.60;99.90
14783;DHT22;7483;50.498;12.138;2022-10-16T13:45:56;18.70;99.90
14783;DHT22;7483;50.498;12.138;2022-10-16T13:48:24;19.00;99.90
14783;DHT22;7483;50.498;12.138;2022-10-16T13:51:04;19.50;99.90
14783;DHT22;7483;50.498;12.138;2022-10-16T13:53:35;19.80;99.90
14783;DHT22;7483;50.498;12.138;2022-10-16T13:56:05;19.80;99.90
14783;DHT22;7483;50.498;12.138;2022-10-16T13:58:33;19.70;99.90
14783;DHT22;7483;50.498;12.138;2022-10-16T14:01:03;19.70;99.90
14783;DHT22;7483;50.498;12.138;2022-10-16T14:03:32;19.50;99.90
14783;DHT22;7483;50.498;12.138;2022-10-16T14:06:04;19.40;99.90
14783;DHT22;7483;50.498;12.138;2022-10-16T14:08:42;19.30;99.90
14783;DHT22;7483;50.498;12.138;2022-10-16T14:11:11;19.30;99.90
14783;DHT22;7483;50.498;12.138;2022-10-16T14:13:43;19.30;99.90
14783;DHT22;7483;50.498;12.138;2022-10-16T14:16:17;19.40;99.90
14783;DHT22;7483;50.498;12.138;2022-10-16T14:18:49;19.40;99.90
14783;DHT22;7483;50.498;12.138;2022-10-16T14:21:21;19.40;99.90
14783;DHT22;7483;50.498;12.138;2022-10-16T14:23:50;19.40;99.90
14783;DHT22;7483;50.498;12.138;2022-10-16T14:26:21;19.40;99.90
14783;DHT22;7483;50.498;12.138;2022-10-16T14:29:03;19.50;99.90
14783;DHT22;7483;50.498;12.138;2022-10-16T14:31:33;19.50;99.90
14783;DHT22;7483;50.498;12.138;2022-10-16T14:34:03;19.40;99.90
14783;DHT22;7483;50.498;12.138;2022-10-16T14:36:31;19.40;99.90
14783;DHT22;7483;50.498;12.138;2022-10-16T14:39:06;19.30;99.90
14783;DHT22;7483;50.498;12.138;2022-10-16T14:41:44;19.30;99.90
14783;DHT22;7483;50.498;12.138;2022-10-16T14:44:13;19.30;99.90
14783;DHT22;7483;50.498;12.138;2022-10-16T14:46:43;19.30;99.90
14783;DHT22;7483;50.498;12.138;2022-10-16T14:49:17;19.30;99.90
14783;DHT22;7483;50.498;12.138;2022-10-16T14:51:47;19.30;99.90
14783;DHT22;7483;50.498;12.138;2022-10-16T14:54:18;19.30;99.90
14783;DHT22;7483;50.498;12.138;2022-10-16T14:56:48;19.40;99.90
14783;DHT22;7483;50.498;12.138;2022-10-16T14:59:19;19.40;99.90
14783;DHT22;7483;50.498;12.138;2022-10-16T15:01:49;19.40;99.90
14783;DHT22;7483;50.498;12.138;2022-10-16T15:04:17;19.30;99.90
14783;DHT22;7483;50.498;12.138;2022-10-16T15:06:45;19.30;99.90
14783;DHT22;7483;50.498;12.138;2022-10-16T15:09:13;19.30;99.90
14783;DHT22;7483;50.498;12.138;2022-10-16T15:11:43;19.30;99.90
14783;DHT22;7483;50.498;12.138;2022-10-16T15:14:11;19.30;99.90
14783;DHT22;7483;50.498;12.138;2022-10-16T15:16:41;19.20;99.90
14783;DHT22;7483;50.498;12.138;2022-10-16T15:19:09;19.20;99.90
14783;DHT22;7483;50.498;12.138;2022-10-16T15:21:37;19.10;99.90
14783;DHT22;7483;50.498;12.138;2022-10-16T15:24:09;19.10;99.90
14783;DHT22;7483;50.498;12.138;2022-10-16T15:26:46;19.10;99.90
14783;DHT22;7483;50.498;12.138;2022-10-16T15:29:15;19.00;99.90
14783;DHT22;7483;50.498;12.138;2022-10-16T15:31:43;18.90;99.90
14783;DHT22;7483;50.498;12.138;2022-10-16T15:34:14;18.90;99.90
14783;DHT22;7483;50.498;12.138;2022-10-16T15:36:42;18.90;99.90
14783;DHT22;7483;50.498;12.138;2022-10-16T15:39:13;18.90;99.90
14783;DHT22;7483;50.498;12.138;2022-10-16T15:41:41;18.80;99.90
14783;DHT22;7483;50.498;12.138;2022-10-16T15:44:10;18.80;99.90
14783;DHT22;7483;50.498;12.138;2022-10-16T15:46:38;18.70;99.90
14783;DHT22;7483;50.498;12.138;2022-10-16T15:49:06;18.70;99.90
14783;DHT22;7483;50.498;12.138;2022-10-16T15:51:37;18.60;99.90
14783;DHT22;7483;50.498;12.138;2022-10-16T15:54:06;18.60;99.90
14783;DHT22;7483;50.498;12.138;2022-10-16T15:56:34;18.60;99.90
14783;DHT22;7483;50.498;12.138;2022-10-16T15:59:04;18.50;99.90
14783;DHT22;7483;50.498;12.138;2022-10-16T16:01:35;18.50;99.90